Detall de PIREP

Printer-friendly versionPDF version

[2012/08/01 17:34:00]
Flight IATA:CT1005
Pilot Number:037
Company ICAO:CAT
Aircraft Type:B752/E
PAX:125
Aircraft Registration:PAX
Departing Airport: LPPR
Destination Airport: EGGP
Alternate Airport:EGNX
Online: VATSIM
Route:TURON A5 STG/N0460F380 UN741 LOTEE UM30 SALCO UN864 MONTY
Flight Level:F240
No Slew and time accel
No pause
Crash detect
Detect pilot in Cockpit between each 30 and 45 minutes
17:34 Zero fuel Weight: 171751 Lbs, Fuel Weight: 26785 Lbs
17:34 VATSIM:LPPR 011700Z 20004KT 170V230 7000 -DZ BKN003 OVC009 19/18 Q1018
17:34 VATSIM:EGGP 011650Z 18014G24KT 9999 FEW020 19/15 Q1001
17:43 Parking Brakes off
17:49 Take-off
17:49 Take off Weight: 197508 Lbs
17:49 Wind: 207º @ 004 Knots Heading: 347º
17:49 POS N41º 14´ 52´´ W008º 40´ 52´´
17:49 Gear Up: 187 Knots
17:49 Flaps:2 at 187 Knots
17:49 Flaps:1 at 193 Knots
17:50 Flaps:0 at 217 Knots
18:01 TOC
18:01 Fuel Weight: 22563 Lb
18:04 Wind:251º@024 Knots Heading: 004º Ground Speed: 418 Knots Altitude 24140 ft
18:19 Wind:287º@043 Knots Heading: 043º Ground Speed: 487 Knots Altitude 24094 ft
18:34 Wind:278º@075 Knots Heading: 010º Ground Speed: 473 Knots Altitude 24002 ft
18:49 Wind:314º@033 Knots Heading: 016º Ground Speed: 448 Knots Altitude 23927 ft
19:04 Wind:254º@036 Knots Heading: 009º Ground Speed: 480 Knots Altitude 23881 ft
19:19 Wind:259º@050 Knots Heading: 000º Ground Speed: 477 Knots Altitude 23772 ft
19:27 TOD
19:27 Fuel Weight: 8940 Lb
19:34 Wind:214º@028 Knots Heading: 356º Ground Speed: 271 Knots Altitude 6998 ft
19:34 Flaps:1 at 203 Knots
19:35 Flaps:2 at 191 Knots
19:38 Flaps:3 at 170 Knots
19:45 Gear Down: 161 Knots
19:45 Flaps:4 at 155 Knots
19:45 Flaps:5 at 138 Knots
19:46 Flaps:6 at 139 Knots
19:46 TouchDown:Rate -319 ft/min Speed: 125 Knots
19:47 VATSIM:EGGP 011920Z 24015KT 9999 VCSH FEW020 SCT030 17/14 Q1003
19:47 Land
19:47 Wind:243º@014 Knots
19:47 Heading: 264º
19:47 Flight Duration: 01:58
19:47 Landing Weight: 178838 Lbs
19:47 POS N53º 20´ 00´´ W002º 51´ 16´´
19:53 Parking brakes on
19:53 Block to Block Duration: 02:10
19:53 Final Fuel: 6377 Lbls
19:53 Spent Fuel: 20407 Lbls
19:53 Flight Length: 705 NM
19:53 TOD Land Length: 81 NM

Exportar CSV

Powered by Drupal - Modified by Danger4k